sensor_id;sensor_type;location;lat;lon;timestamp;P1;durP1;ratioP1;P2;durP2;ratioP2
44995;SDS011;30729;49.486;10.792;2022-10-16T00:02:20;3.83;;;1.20;;
44995;SDS011;30729;49.486;10.792;2022-10-16T00:04:45;3.15;;;0.98;;
44995;SDS011;30729;49.486;10.792;2022-10-16T00:07:11;1.23;;;0.95;;
44995;SDS011;30729;49.486;10.792;2022-10-16T00:09:37;2.72;;;1.10;;
44995;SDS011;30729;49.486;10.792;2022-10-16T00:12:02;2.92;;;1.17;;
44995;SDS011;30729;49.486;10.792;2022-10-16T00:14:29;3.35;;;1.00;;
44995;SDS011;30729;49.486;10.792;2022-10-16T00:16:55;1.60;;;0.80;;
44995;SDS011;30729;49.486;10.792;2022-10-16T00:19:20;6.53;;;1.20;;
44995;SDS011;30729;49.486;10.792;2022-10-16T00:21:45;1.98;;;0.95;;
44995;SDS011;30729;49.486;10.792;2022-10-16T00:24:11;5.20;;;1.20;;
44995;SDS011;30729;49.486;10.792;2022-10-16T00:26:36;6.20;;;1.50;;
44995;SDS011;30729;49.486;10.792;2022-10-16T00:29:03;2.88;;;1.10;;
44995;SDS011;30729;49.486;10.792;2022-10-16T00:31:29;4.63;;;1.92;;
44995;SDS011;30729;49.486;10.792;2022-10-16T00:33:55;2.05;;;0.95;;
44995;SDS011;30729;49.486;10.792;2022-10-16T00:36:22;2.33;;;1.10;;
44995;SDS011;30729;49.486;10.792;2022-10-16T00:38:52;2.28;;;1.08;;
44995;SDS011;30729;49.486;10.792;2022-10-16T00:41:20;2.70;;;1.20;;
44995;SDS011;30729;49.486;10.792;2022-10-16T00:43:48;3.55;;;1.33;;
44995;SDS011;30729;49.486;10.792;2022-10-16T00:49:10;2.88;;;1.08;;
44995;SDS011;30729;49.486;10.792;2022-10-16T00:51:39;3.38;;;1.10;;
44995;SDS011;30729;49.486;10.792;2022-10-16T00:54:08;1.95;;;1.00;;
44995;SDS011;30729;49.486;10.792;2022-10-16T00:56:38;2.17;;;1.00;;
44995;SDS011;30729;49.486;10.792;2022-10-16T00:59:04;1.95;;;1.05;;
44995;SDS011;30729;49.486;10.792;2022-10-16T01:01:38;6.80;;;1.38;;
44995;SDS011;30729;49.486;10.792;2022-10-16T01:04:04;2.47;;;1.25;;
44995;SDS011;30729;49.486;10.792;2022-10-16T01:12:14;3.28;;;1.00;;
44995;SDS011;30729;49.486;10.792;2022-10-16T01:14:51;2.78;;;0.93;;
44995;SDS011;30729;49.486;10.792;2022-10-16T01:17:23;4.75;;;1.50;;
44995;SDS011;30729;49.486;10.792;2022-10-16T01:20:02;5.60;;;1.48;;
44995;SDS011;30729;49.486;10.792;2022-10-16T01:22:39;2.42;;;1.30;;
44995;SDS011;30729;49.486;10.792;2022-10-16T01:25:20;1.73;;;1.05;;
44995;SDS011;30729;49.486;10.792;2022-10-16T01:27:56;2.85;;;1.25;;
44995;SDS011;30729;49.486;10.792;2022-10-16T01:30:28;2.78;;;1.08;;
44995;SDS011;30729;49.486;10.792;2022-10-16T01:32:59;3.00;;;1.13;;
44995;SDS011;30729;49.486;10.792;2022-10-16T01:35:38;2.38;;;1.00;;
44995;SDS011;30729;49.486;10.792;2022-10-16T01:38:19;2.72;;;1.17;;
44995;SDS011;30729;49.486;10.792;2022-10-16T01:40:51;1.88;;;1.13;;
44995;SDS011;30729;49.486;10.792;2022-10-16T01:43:23;2.88;;;1.25;;
44995;SDS011;30729;49.486;10.792;2022-10-16T01:45:56;2.97;;;1.27;;
44995;SDS011;30729;49.486;10.792;2022-10-16T01:48:24;2.22;;;1.30;;
44995;SDS011;30729;49.486;10.792;2022-10-16T01:50:57;2.75;;;1.23;;
44995;SDS011;30729;49.486;10.792;2022-10-16T01:53:28;3.10;;;1.20;;
44995;SDS011;30729;49.486;10.792;2022-10-16T01:55:55;2.47;;;1.25;;
44995;SDS011;30729;49.486;10.792;2022-10-16T01:58:24;2.20;;;1.02;;
44995;SDS011;30729;49.486;10.792;2022-10-16T02:00:50;4.03;;;1.25;;
44995;SDS011;30729;49.486;10.792;2022-10-16T02:03:18;4.20;;;1.40;;
44995;SDS011;30729;49.486;10.792;2022-10-16T02:05:46;2.08;;;1.20;;
44995;SDS011;30729;49.486;10.792;2022-10-16T02:08:23;2.30;;;1.08;;
44995;SDS011;30729;49.486;10.792;2022-10-16T02:10:53;7.03;;;1.60;;
44995;SDS011;30729;49.486;10.792;2022-10-16T02:13:24;2.45;;;1.15;;
44995;SDS011;30729;49.486;10.792;2022-10-16T02:15:54;4.13;;;1.27;;
44995;SDS011;30729;49.486;10.792;2022-10-16T02:18:20;2.38;;;1.13;;
44995;SDS011;30729;49.486;10.792;2022-10-16T02:20:51;3.03;;;1.30;;
44995;SDS011;30729;49.486;10.792;2022-10-16T02:26:28;3.15;;;1.30;;
44995;SDS011;30729;49.486;10.792;2022-10-16T02:29:11;3.42;;;1.25;;
44995;SDS011;30729;49.486;10.792;2022-10-16T02:31:42;3.17;;;1.60;;
44995;SDS011;30729;49.486;10.792;2022-10-16T02:34:12;5.00;;;1.40;;
44995;SDS011;30729;49.486;10.792;2022-10-16T02:36:39;2.13;;;1.20;;
44995;SDS011;30729;49.486;10.792;2022-10-16T02:39:06;3.28;;;1.40;;
44995;SDS011;30729;49.486;10.792;2022-10-16T02:41:33;5.32;;;1.50;;
44995;SDS011;30729;49.486;10.792;2022-10-16T02:43:59;2.03;;;1.35;;
44995;SDS011;30729;49.486;10.792;2022-10-16T02:46:24;2.85;;;1.27;;
44995;SDS011;30729;49.486;10.792;2022-10-16T02:48:49;5.38;;;1.45;;
44995;SDS011;30729;49.486;10.792;2022-10-16T02:51:15;3.58;;;1.65;;
44995;SDS011;30729;49.486;10.792;2022-10-16T02:53:40;3.08;;;1.40;;
44995;SDS011;30729;49.486;10.792;2022-10-16T02:56:06;5.95;;;1.10;;
44995;SDS011;30729;49.486;10.792;2022-10-16T02:58:31;6.47;;;1.27;;
44995;SDS011;30729;49.486;10.792;2022-10-16T03:00:57;4.00;;;1.48;;
44995;SDS011;30729;49.486;10.792;2022-10-16T03:03:22;3.85;;;1.50;;
44995;SDS011;30729;49.486;10.792;2022-10-16T03:05:47;2.72;;;1.38;;
44995;SDS011;30729;49.486;10.792;2022-10-16T03:08:13;2.20;;;1.33;;
44995;SDS011;30729;49.486;10.792;2022-10-16T03:10:39;3.28;;;1.40;;
44995;SDS011;30729;49.486;10.792;2022-10-16T03:13:04;2.63;;;1.30;;
44995;SDS011;30729;49.486;10.792;2022-10-16T03:15:29;5.13;;;1.30;;
44995;SDS011;30729;49.486;10.792;2022-10-16T03:17:57;5.82;;;1.60;;
44995;SDS011;30729;49.486;10.792;2022-10-16T03:20:23;2.53;;;1.50;;
44995;SDS011;30729;49.486;10.792;2022-10-16T03:22:49;6.50;;;1.33;;
44995;SDS011;30729;49.486;10.792;2022-10-16T03:25:14;2.47;;;1.20;;
44995;SDS011;30729;49.486;10.792;2022-10-16T03:27:39;3.65;;;1.67;;
44995;SDS011;30729;49.486;10.792;2022-10-16T03:30:05;2.92;;;1.40;;
44995;SDS011;30729;49.486;10.792;2022-10-16T03:32:31;2.83;;;1.85;;
44995;SDS011;30729;49.486;10.792;2022-10-16T03:34:56;2.45;;;1.30;;
44995;SDS011;30729;49.486;10.792;2022-10-16T03:37:22;3.78;;;1.55;;
44995;SDS011;30729;49.486;10.792;2022-10-16T03:39:47;3.75;;;1.45;;
44995;SDS011;30729;49.486;10.792;2022-10-16T03:42:12;4.32;;;1.40;;
44995;SDS011;30729;49.486;10.792;2022-10-16T03:44:38;7.55;;;1.33;;
44995;SDS011;30729;49.486;10.792;2022-10-16T03:47:03;3.30;;;1.45;;
44995;SDS011;30729;49.486;10.792;2022-10-16T03:49:29;4.88;;;1.25;;
44995;SDS011;30729;49.486;10.792;2022-10-16T03:51:54;2.08;;;1.05;;
44995;SDS011;30729;49.486;10.792;2022-10-16T03:54:20;3.35;;;2.05;;
44995;SDS011;30729;49.486;10.792;2022-10-16T03:56:47;3.38;;;1.33;;
44995;SDS011;30729;49.486;10.792;2022-10-16T03:59:12;6.40;;;1.60;;
44995;SDS011;30729;49.486;10.792;2022-10-16T04:01:38;6.45;;;1.60;;
44995;SDS011;30729;49.486;10.792;2022-10-16T04:04:03;7.68;;;1.35;;
44995;SDS011;30729;49.486;10.792;2022-10-16T04:06:28;4.85;;;1.55;;
44995;SDS011;30729;49.486;10.792;2022-10-16T04:08:54;2.55;;;1.20;;
44995;SDS011;30729;49.486;10.792;2022-10-16T04:11:19;2.10;;;1.08;;
44995;SDS011;30729;49.486;10.792;2022-10-16T04:13:44;3.28;;;1.40;;
44995;SDS011;30729;49.486;10.792;2022-10-16T04:16:10;3.65;;;1.30;;
44995;SDS011;30729;49.486;10.792;2022-10-16T04:18:35;4.72;;;1.40;;
44995;SDS011;30729;49.486;10.792;2022-10-16T04:21:04;3.70;;;1.58;;
44995;SDS011;30729;49.486;10.792;2022-10-16T04:23:30;4.28;;;1.30;;
44995;SDS011;30729;49.486;10.792;2022-10-16T04:25:56;2.75;;;1.50;;
44995;SDS011;30729;49.486;10.792;2022-10-16T04:28:22;5.95;;;1.40;;
44995;SDS011;30729;49.486;10.792;2022-10-16T04:30:47;3.30;;;1.30;;
44995;SDS011;30729;49.486;10.792;2022-10-16T04:33:13;6.97;;;1.70;;
44995;SDS011;30729;49.486;10.792;2022-10-16T04:35:38;2.90;;;1.58;;
44995;SDS011;30729;49.486;10.792;2022-10-16T04:38:04;2.78;;;1.52;;
44995;SDS011;30729;49.486;10.792;2022-10-16T04:40:29;3.47;;;1.23;;
44995;SDS011;30729;49.486;10.792;2022-10-16T04:42:58;11.10;;;1.50;;
44995;SDS011;30729;49.486;10.792;2022-10-16T04:45:24;4.38;;;1.52;;
44995;SDS011;30729;49.486;10.792;2022-10-16T04:47:49;2.65;;;1.23;;
44995;SDS011;30729;49.486;10.792;2022-10-16T04:50:15;3.08;;;1.85;;
44995;SDS011;30729;49.486;10.792;2022-10-16T04:52:40;2.67;;;1.45;;
44995;SDS011;30729;49.486;10.792;2022-10-16T04:55:06;3.03;;;1.42;;
44995;SDS011;30729;49.486;10.792;2022-10-16T04:57:32;7.68;;;1.48;;
44995;SDS011;30729;49.486;10.792;2022-10-16T04:59:58;2.28;;;1.20;;
44995;SDS011;30729;49.486;10.792;2022-10-16T05:02:24;2.22;;;1.20;;
44995;SDS011;30729;49.486;10.792;2022-10-16T05:04:50;2.22;;;1.50;;
44995;SDS011;30729;49.486;10.792;2022-10-16T05:07:16;3.25;;;1.40;;
44995;SDS011;30729;49.486;10.792;2022-10-16T05:09:41;2.50;;;1.30;;
44995;SDS011;30729;49.486;10.792;2022-10-16T05:12:06;4.82;;;1.40;;
44995;SDS011;30729;49.486;10.792;2022-10-16T05:14:32;2.53;;;1.38;;
44995;SDS011;30729;49.486;10.792;2022-10-16T05:16:57;2.70;;;1.63;;
44995;SDS011;30729;49.486;10.792;2022-10-16T05:19:24;2.70;;;1.35;;
44995;SDS011;30729;49.486;10.792;2022-10-16T05:21:49;4.47;;;1.50;;
44995;SDS011;30729;49.486;10.792;2022-10-16T05:24:15;3.22;;;1.20;;
44995;SDS011;30729;49.486;10.792;2022-10-16T05:26:40;3.72;;;1.40;;
44995;SDS011;30729;49.486;10.792;2022-10-16T05:29:06;2.63;;;1.38;;
44995;SDS011;30729;49.486;10.792;2022-10-16T05:31:31;4.63;;;1.38;;
44995;SDS011;30729;49.486;10.792;2022-10-16T05:33:59;9.57;;;2.03;;
44995;SDS011;30729;49.486;10.792;2022-10-16T05:36:25;3.08;;;1.40;;
44995;SDS011;30729;49.486;10.792;2022-10-16T05:38:51;3.85;;;1.52;;
44995;SDS011;30729;49.486;10.792;2022-10-16T05:41:16;4.20;;;1.40;;
44995;SDS011;30729;49.486;10.792;2022-10-16T05:43:46;3.28;;;2.35;;
44995;SDS011;30729;49.486;10.792;2022-10-16T05:46:14;2.65;;;1.40;;
44995;SDS011;30729;49.486;10.792;2022-10-16T05:48:40;3.25;;;1.60;;
44995;SDS011;30729;49.486;10.792;2022-10-16T05:51:06;2.80;;;1.27;;
44995;SDS011;30729;49.486;10.792;2022-10-16T05:53:34;3.72;;;1.38;;
44995;SDS011;30729;49.486;10.792;2022-10-16T05:56:01;1.60;;;1.23;;
44995;SDS011;30729;49.486;10.792;2022-10-16T05:58:31;4.68;;;1.60;;
44995;SDS011;30729;49.486;10.792;2022-10-16T06:03:30;4.35;;;1.75;;
44995;SDS011;30729;49.486;10.792;2022-10-16T06:05:56;2.70;;;1.58;;
44995;SDS011;30729;49.486;10.792;2022-10-16T06:08:22;5.85;;;1.48;;
44995;SDS011;30729;49.486;10.792;2022-10-16T06:10:48;6.03;;;2.10;;
44995;SDS011;30729;49.486;10.792;2022-10-16T06:13:24;5.93;;;2.17;;
44995;SDS011;30729;49.486;10.792;2022-10-16T06:15:50;3.78;;;1.60;;
44995;SDS011;30729;49.486;10.792;2022-10-16T06:18:15;4.38;;;1.75;;
44995;SDS011;30729;49.486;10.792;2022-10-16T06:20:40;4.13;;;1.30;;
44995;SDS011;30729;49.486;10.792;2022-10-16T06:23:06;4.75;;;1.50;;
44995;SDS011;30729;49.486;10.792;2022-10-16T06:25:31;3.30;;;1.58;;
44995;SDS011;30729;49.486;10.792;2022-10-16T06:27:57;2.95;;;1.73;;
44995;SDS011;30729;49.486;10.792;2022-10-16T06:30:22;4.20;;;1.58;;
44995;SDS011;30729;49.486;10.792;2022-10-16T06:32:47;4.85;;;2.10;;
44995;SDS011;30729;49.486;10.792;2022-10-16T06:35:13;3.08;;;1.90;;
44995;SDS011;30729;49.486;10.792;2022-10-16T06:37:38;6.63;;;2.40;;
44995;SDS011;30729;49.486;10.792;2022-10-16T06:40:04;4.47;;;2.45;;
44995;SDS011;30729;49.486;10.792;2022-10-16T06:42:30;6.07;;;2.28;;
44995;SDS011;30729;49.486;10.792;2022-10-16T06:44:55;5.43;;;2.33;;
44995;SDS011;30729;49.486;10.792;2022-10-16T06:47:21;5.47;;;2.58;;
44995;SDS011;30729;49.486;10.792;2022-10-16T06:49:46;5.70;;;2.67;;
44995;SDS011;30729;49.486;10.792;2022-10-16T06:52:12;5.80;;;2.47;;
44995;SDS011;30729;49.486;10.792;2022-10-16T06:54:37;5.63;;;2.25;;
44995;SDS011;30729;49.486;10.792;2022-10-16T06:57:02;5.90;;;2.53;;
44995;SDS011;30729;49.486;10.792;2022-10-16T06:59:28;5.68;;;3.03;;
44995;SDS011;30729;49.486;10.792;2022-10-16T07:01:53;6.00;;;2.63;;
44995;SDS011;30729;49.486;10.792;2022-10-16T07:04:19;6.65;;;2.55;;
44995;SDS011;30729;49.486;10.792;2022-10-16T07:06:44;8.88;;;4.65;;
44995;SDS011;30729;49.486;10.792;2022-10-16T07:09:10;8.98;;;3.83;;
44995;SDS011;30729;49.486;10.792;2022-10-16T07:11:36;6.53;;;3.30;;
44995;SDS011;30729;49.486;10.792;2022-10-16T07:14:03;8.07;;;2.10;;
44995;SDS011;30729;49.486;10.792;2022-10-16T07:16:29;6.22;;;2.45;;
44995;SDS011;30729;49.486;10.792;2022-10-16T07:18:59;5.63;;;2.75;;
44995;SDS011;30729;49.486;10.792;2022-10-16T07:21:27;7.15;;;3.13;;
44995;SDS011;30729;49.486;10.792;2022-10-16T07:23:55;5.15;;;2.60;;
44995;SDS011;30729;49.486;10.792;2022-10-16T07:26:24;4.72;;;2.40;;
44995;SDS011;30729;49.486;10.792;2022-10-16T07:28:51;9.30;;;3.38;;
44995;SDS011;30729;49.486;10.792;2022-10-16T07:31:17;7.43;;;3.10;;
44995;SDS011;30729;49.486;10.792;2022-10-16T07:33:44;8.88;;;3.50;;
44995;SDS011;30729;49.486;10.792;2022-10-16T07:36:11;5.07;;;2.25;;
44995;SDS011;30729;49.486;10.792;2022-10-16T07:38:37;5.50;;;2.63;;
44995;SDS011;30729;49.486;10.792;2022-10-16T07:41:04;8.60;;;4.85;;
44995;SDS011;30729;49.486;10.792;2022-10-16T07:43:31;6.18;;;3.10;;
44995;SDS011;30729;49.486;10.792;2022-10-16T07:45:57;6.32;;;3.45;;
44995;SDS011;30729;49.486;10.792;2022-10-16T07:48:23;10.93;;;5.78;;
44995;SDS011;30729;49.486;10.792;2022-10-16T07:50:51;7.50;;;2.78;;
44995;SDS011;30729;49.486;10.792;2022-10-16T07:53:17;5.18;;;2.63;;
44995;SDS011;30729;49.486;10.792;2022-10-16T07:55:42;5.30;;;2.00;;
44995;SDS011;30729;49.486;10.792;2022-10-16T07:58:07;6.75;;;1.98;;
44995;SDS011;30729;49.486;10.792;2022-10-16T08:00:33;4.00;;;1.70;;
44995;SDS011;30729;49.486;10.792;2022-10-16T08:03:00;3.50;;;1.77;;
44995;SDS011;30729;49.486;10.792;2022-10-16T08:05:26;3.80;;;1.92;;
44995;SDS011;30729;49.486;10.792;2022-10-16T08:07:53;4.55;;;1.77;;
44995;SDS011;30729;49.486;10.792;2022-10-16T08:10:19;5.43;;;1.80;;
44995;SDS011;30729;49.486;10.792;2022-10-16T08:12:46;6.25;;;1.80;;
44995;SDS011;30729;49.486;10.792;2022-10-16T08:15:12;3.80;;;1.90;;
44995;SDS011;30729;49.486;10.792;2022-10-16T08:17:37;6.68;;;1.65;;
44995;SDS011;30729;49.486;10.792;2022-10-16T08:20:03;5.28;;;2.15;;
44995;SDS011;30729;49.486;10.792;2022-10-16T08:22:28;3.25;;;1.45;;
44995;SDS011;30729;49.486;10.792;2022-10-16T08:24:54;2.72;;;1.58;;
44995;SDS011;30729;49.486;10.792;2022-10-16T08:27:19;4.07;;;2.00;;
44995;SDS011;30729;49.486;10.792;2022-10-16T08:29:45;4.32;;;1.70;;
44995;SDS011;30729;49.486;10.792;2022-10-16T08:32:10;5.45;;;2.70;;
44995;SDS011;30729;49.486;10.792;2022-10-16T08:34:35;6.43;;;1.77;;
44995;SDS011;30729;49.486;10.792;2022-10-16T08:37:01;5.78;;;2.17;;
44995;SDS011;30729;49.486;10.792;2022-10-16T08:39:27;5.15;;;1.60;;
44995;SDS011;30729;49.486;10.792;2022-10-16T08:42:07;4.13;;;1.92;;
44995;SDS011;30729;49.486;10.792;2022-10-16T08:47:35;8.40;;;1.90;;
44995;SDS011;30729;49.486;10.792;2022-10-16T08:50:13;3.40;;;1.60;;
44995;SDS011;30729;49.486;10.792;2022-10-16T08:52:43;3.33;;;1.60;;
44995;SDS011;30729;49.486;10.792;2022-10-16T08:58:48;3.22;;;1.70;;
44995;SDS011;30729;49.486;10.792;2022-10-16T09:00:59;6.25;;;1.88;;
44995;SDS011;30729;49.486;10.792;2022-10-16T09:06:12;3.92;;;1.50;;
44995;SDS011;30729;49.486;10.792;2022-10-16T09:11:42;4.18;;;1.58;;
44995;SDS011;30729;49.486;10.792;2022-10-16T09:16:53;4.90;;;1.52;;
44995;SDS011;30729;49.486;10.792;2022-10-16T09:19:36;3.25;;;1.63;;
44995;SDS011;30729;49.486;10.792;2022-10-16T09:22:14;3.78;;;1.60;;
44995;SDS011;30729;49.486;10.792;2022-10-16T09:24:41;3.33;;;1.60;;
44995;SDS011;30729;49.486;10.792;2022-10-16T09:27:10;4.90;;;1.70;;
44995;SDS011;30729;49.486;10.792;2022-10-16T09:29:36;6.53;;;2.10;;
44995;SDS011;30729;49.486;10.792;2022-10-16T09:32:20;4.82;;;1.73;;
44995;SDS011;30729;49.486;10.792;2022-10-16T09:34:48;5.32;;;1.45;;
44995;SDS011;30729;49.486;10.792;2022-10-16T09:37:19;3.95;;;1.67;;
44995;SDS011;30729;49.486;10.792;2022-10-16T09:39:51;4.57;;;1.52;;
44995;SDS011;30729;49.486;10.792;2022-10-16T09:44:49;3.70;;;1.70;;
44995;SDS011;30729;49.486;10.792;2022-10-16T09:47:17;2.47;;;1.52;;
44995;SDS011;30729;49.486;10.792;2022-10-16T09:49:52;4.18;;;1.70;;
44995;SDS011;30729;49.486;10.792;2022-10-16T09:52:19;4.57;;;1.73;;
44995;SDS011;30729;49.486;10.792;2022-10-16T09:54:51;3.03;;;1.63;;
44995;SDS011;30729;49.486;10.792;2022-10-16T09:57:21;5.40;;;2.15;;
44995;SDS011;30729;49.486;10.792;2022-10-16T09:59:56;3.85;;;1.60;;
44995;SDS011;30729;49.486;10.792;2022-10-16T10:02:29;3.58;;;1.48;;
44995;SDS011;30729;49.486;10.792;2022-10-16T10:04:59;3.25;;;1.60;;
44995;SDS011;30729;49.486;10.792;2022-10-16T10:07:27;3.75;;;1.85;;
44995;SDS011;30729;49.486;10.792;2022-10-16T10:09:58;5.95;;;1.65;;
44995;SDS011;30729;49.486;10.792;2022-10-16T10:12:24;4.07;;;2.10;;
44995;SDS011;30729;49.486;10.792;2022-10-16T10:14:55;5.85;;;1.60;;
44995;SDS011;30729;49.486;10.792;2022-10-16T10:17:23;4.78;;;2.00;;
44995;SDS011;30729;49.486;10.792;2022-10-16T10:19:57;4.45;;;1.70;;
44995;SDS011;30729;49.486;10.792;2022-10-16T10:24:55;5.53;;;2.10;;
44995;SDS011;30729;49.486;10.792;2022-10-16T10:33:18;3.75;;;1.75;;
44995;SDS011;30729;49.486;10.792;2022-10-16T10:43:49;3.75;;;1.67;;
44995;SDS011;30729;49.486;10.792;2022-10-16T10:52:58;3.55;;;1.67;;
44995;SDS011;30729;49.486;10.792;2022-10-16T11:05:49;3.90;;;1.80;;
44995;SDS011;30729;49.486;10.792;2022-10-16T11:08:20;4.38;;;1.90;;
44995;SDS011;30729;49.486;10.792;2022-10-16T11:10:58;3.45;;;1.73;;
44995;SDS011;30729;49.486;10.792;2022-10-16T11:13:43;3.13;;;1.58;;
44995;SDS011;30729;49.486;10.792;2022-10-16T11:16:22;5.10;;;1.38;;
44995;SDS011;30729;49.486;10.792;2022-10-16T11:18:59;4.25;;;1.58;;
44995;SDS011;30729;49.486;10.792;2022-10-16T11:21:39;3.72;;;1.63;;
44995;SDS011;30729;49.486;10.792;2022-10-16T11:26:54;4.55;;;1.63;;
44995;SDS011;30729;49.486;10.792;2022-10-16T11:29:25;2.33;;;1.35;;
44995;SDS011;30729;49.486;10.792;2022-10-16T11:31:55;3.58;;;1.63;;
44995;SDS011;30729;49.486;10.792;2022-10-16T11:34:29;3.70;;;1.80;;
44995;SDS011;30729;49.486;10.792;2022-10-16T11:39:31;4.10;;;1.20;;
44995;SDS011;30729;49.486;10.792;2022-10-16T11:42:02;3.38;;;1.60;;
44995;SDS011;30729;49.486;10.792;2022-10-16T11:44:55;2.13;;;1.30;;
44995;SDS011;30729;49.486;10.792;2022-10-16T11:47:27;3.30;;;1.17;;
44995;SDS011;30729;49.486;10.792;2022-10-16T11:50:04;4.38;;;1.60;;
44995;SDS011;30729;49.486;10.792;2022-10-16T11:52:35;5.05;;;1.40;;
44995;SDS011;30729;49.486;10.792;2022-10-16T11:55:14;2.83;;;1.60;;
44995;SDS011;30729;49.486;10.792;2022-10-16T11:57:44;5.97;;;1.60;;
44995;SDS011;30729;49.486;10.792;2022-10-16T12:00:24;1.80;;;1.10;;
44995;SDS011;30729;49.486;10.792;2022-10-16T12:08:50;2.88;;;1.20;;
44995;SDS011;30729;49.486;10.792;2022-10-16T12:16:37;2.75;;;1.40;;
44995;SDS011;30729;49.486;10.792;2022-10-16T12:21:39;1.92;;;1.00;;
44995;SDS011;30729;49.486;10.792;2022-10-16T12:24:05;3.38;;;1.30;;
44995;SDS011;30729;49.486;10.792;2022-10-16T12:26:32;3.85;;;1.40;;
44995;SDS011;30729;49.486;10.792;2022-10-16T12:31:57;2.58;;;1.10;;
44995;SDS011;30729;49.486;10.792;2022-10-16T12:34:29;2.60;;;1.38;;
44995;SDS011;30729;49.486;10.792;2022-10-16T12:37:10;2.97;;;1.33;;
44995;SDS011;30729;49.486;10.792;2022-10-16T12:39:39;5.85;;;1.38;;
44995;SDS011;30729;49.486;10.792;2022-10-16T12:42:06;3.97;;;1.50;;
44995;SDS011;30729;49.486;10.792;2022-10-16T12:44:46;3.58;;;1.20;;
44995;SDS011;30729;49.486;10.792;2022-10-16T12:49:49;4.07;;;1.25;;
44995;SDS011;30729;49.486;10.792;2022-10-16T12:55:02;2.70;;;1.38;;
44995;SDS011;30729;49.486;10.792;2022-10-16T13:22:34;2.50;;;1.02;;
44995;SDS011;30729;49.486;10.792;2022-10-16T13:26:05;1.98;;;1.13;;
44995;SDS011;30729;49.486;10.792;2022-10-16T13:28:28;2.60;;;1.30;;
44995;SDS011;30729;49.486;10.792;2022-10-16T13:30:57;2.70;;;1.20;;
44995;SDS011;30729;49.486;10.792;2022-10-16T13:33:41;3.40;;;1.27;;
44995;SDS011;30729;49.486;10.792;2022-10-16T13:36:23;3.33;;;1.20;;
44995;SDS011;30729;49.486;10.792;2022-10-16T13:38:59;2.45;;;1.13;;
44995;SDS011;30729;49.486;10.792;2022-10-16T13:41:25;2.78;;;1.17;;
44995;SDS011;30729;49.486;10.792;2022-10-16T13:43:51;3.50;;;1.13;;
44995;SDS011;30729;49.486;10.792;2022-10-16T13:46:21;1.55;;;0.93;;
44995;SDS011;30729;49.486;10.792;2022-10-16T13:51:27;3.40;;;1.10;;
44995;SDS011;30729;49.486;10.792;2022-10-16T13:53:57;4.65;;;1.55;;
44995;SDS011;30729;49.486;10.792;2022-10-16T13:56:27;1.65;;;1.05;;
44995;SDS011;30729;49.486;10.792;2022-10-16T13:59:02;2.38;;;1.20;;
44995;SDS011;30729;49.486;10.792;2022-10-16T14:01:28;3.22;;;1.17;;
44995;SDS011;30729;49.486;10.792;2022-10-16T14:04:07;2.60;;;1.10;;
44995;SDS011;30729;49.486;10.792;2022-10-16T14:06:34;2.45;;;1.30;;
44995;SDS011;30729;49.486;10.792;2022-10-16T14:09:04;2.65;;;1.00;;
44995;SDS011;30729;49.486;10.792;2022-10-16T14:11:32;2.03;;;1.40;;
44995;SDS011;30729;49.486;10.792;2022-10-16T14:13:59;2.72;;;1.00;;
44995;SDS011;30729;49.486;10.792;2022-10-16T14:16:26;1.45;;;1.00;;
44995;SDS011;30729;49.486;10.792;2022-10-16T14:18:57;4.30;;;1.75;;
44995;SDS011;30729;49.486;10.792;2022-10-16T14:21:25;3.58;;;1.13;;
44995;SDS011;30729;49.486;10.792;2022-10-16T14:23:51;2.83;;;1.40;;
44995;SDS011;30729;49.486;10.792;2022-10-16T14:26:19;2.42;;;1.20;;
44995;SDS011;30729;49.486;10.792;2022-10-16T14:28:47;3.42;;;1.50;;
44995;SDS011;30729;49.486;10.792;2022-10-16T14:31:27;2.55;;;1.20;;
44995;SDS011;30729;49.486;10.792;2022-10-16T14:33:53;2.50;;;1.10;;
44995;SDS011;30729;49.486;10.792;2022-10-16T14:36:19;5.18;;;1.63;;
44995;SDS011;30729;49.486;10.792;2022-10-16T14:41:26;3.13;;;1.13;;
44995;SDS011;30729;49.486;10.792;2022-10-16T14:43:55;2.92;;;1.40;;
44995;SDS011;30729;49.486;10.792;2022-10-16T14:46:31;2.65;;;1.25;;
44995;SDS011;30729;49.486;10.792;2022-10-16T14:49:03;1.35;;;0.95;;
44995;SDS011;30729;49.486;10.792;2022-10-16T14:51:41;2.95;;;1.30;;
44995;SDS011;30729;49.486;10.792;2022-10-16T14:54:09;2.45;;;1.20;;
44995;SDS011;30729;49.486;10.792;2022-10-16T14:59:12;3.33;;;1.30;;
44995;SDS011;30729;49.486;10.792;2022-10-16T15:01:42;7.57;;;4.00;;
44995;SDS011;30729;49.486;10.792;2022-10-16T15:04:09;8.50;;;3.30;;
44995;SDS011;30729;49.486;10.792;2022-10-16T15:06:37;4.15;;;1.73;;
44995;SDS011;30729;49.486;10.792;2022-10-16T15:09:02;4.93;;;2.38;;
44995;SDS011;30729;49.486;10.792;2022-10-16T15:11:28;2.75;;;1.50;;
44995;SDS011;30729;49.486;10.792;2022-10-16T15:13:56;3.15;;;1.60;;
44995;SDS011;30729;49.486;10.792;2022-10-16T15:16:21;2.60;;;1.20;;
44995;SDS011;30729;49.486;10.792;2022-10-16T15:18:47;3.35;;;1.63;;
44995;SDS011;30729;49.486;10.792;2022-10-16T15:21:33;4.10;;;1.63;;
44995;SDS011;30729;49.486;10.792;2022-10-16T15:23:58;2.95;;;1.30;;
44995;SDS011;30729;49.486;10.792;2022-10-16T15:26:25;2.83;;;1.17;;
44995;SDS011;30729;49.486;10.792;2022-10-16T15:28:52;4.18;;;1.58;;
44995;SDS011;30729;49.486;10.792;2022-10-16T15:31:18;2.30;;;1.33;;
44995;SDS011;30729;49.486;10.792;2022-10-16T15:33:44;6.47;;;1.45;;
44995;SDS011;30729;49.486;10.792;2022-10-16T15:36:12;3.20;;;1.70;;
44995;SDS011;30729;49.486;10.792;2022-10-16T15:38:38;5.25;;;1.88;;
44995;SDS011;30729;49.486;10.792;2022-10-16T15:41:03;4.05;;;1.80;;
44995;SDS011;30729;49.486;10.792;2022-10-16T15:43:29;4.15;;;1.90;;
44995;SDS011;30729;49.486;10.792;2022-10-16T15:48:28;6.10;;;2.85;;
44995;SDS011;30729;49.486;10.792;2022-10-16T15:50:53;4.07;;;2.20;;
44995;SDS011;30729;49.486;10.792;2022-10-16T15:53:19;3.72;;;1.33;;
44995;SDS011;30729;49.486;10.792;2022-10-16T15:55:44;2.55;;;1.50;;
44995;SDS011;30729;49.486;10.792;2022-10-16T15:58:10;6.60;;;2.45;;
44995;SDS011;30729;49.486;10.792;2022-10-16T16:00:35;6.97;;;3.25;;
44995;SDS011;30729;49.486;10.792;2022-10-16T16:03:01;9.15;;;1.98;;
44995;SDS011;30729;49.486;10.792;2022-10-16T16:05:26;6.05;;;1.95;;
44995;SDS011;30729;49.486;10.792;2022-10-16T16:07:52;5.57;;;2.00;;
44995;SDS011;30729;49.486;10.792;2022-10-16T16:10:18;4.70;;;1.95;;
44995;SDS011;30729;49.486;10.792;2022-10-16T16:12:46;6.60;;;2.22;;
44995;SDS011;30729;49.486;10.792;2022-10-16T16:15:16;4.85;;;1.85;;
44995;SDS011;30729;49.486;10.792;2022-10-16T16:17:42;5.13;;;2.17;;
44995;SDS011;30729;49.486;10.792;2022-10-16T16:20:09;6.10;;;2.22;;
44995;SDS011;30729;49.486;10.792;2022-10-16T16:22:35;5.53;;;2.00;;
44995;SDS011;30729;49.486;10.792;2022-10-16T16:25:00;4.35;;;1.58;;
44995;SDS011;30729;49.486;10.792;2022-10-16T16:27:26;3.17;;;1.30;;
44995;SDS011;30729;49.486;10.792;2022-10-16T16:29:53;3.05;;;1.40;;
44995;SDS011;30729;49.486;10.792;2022-10-16T16:32:20;4.53;;;1.50;;
44995;SDS011;30729;49.486;10.792;2022-10-16T16:34:45;7.45;;;1.85;;
44995;SDS011;30729;49.486;10.792;2022-10-16T16:37:11;4.97;;;2.42;;
44995;SDS011;30729;49.486;10.792;2022-10-16T16:39:36;6.38;;;4.13;;
44995;SDS011;30729;49.486;10.792;2022-10-16T16:42:01;4.80;;;3.22;;
44995;SDS011;30729;49.486;10.792;2022-10-16T16:44:29;4.72;;;2.50;;
44995;SDS011;30729;49.486;10.792;2022-10-16T16:46:54;2.83;;;1.75;;
44995;SDS011;30729;49.486;10.792;2022-10-16T16:49:19;3.22;;;2.03;;